createdAt,value
2023-03-12T00:01:56.893Z,7.73
2023-03-12T00:04:26.429Z,9.87
2023-03-12T00:06:54.627Z,8.43
2023-03-12T00:09:23.394Z,8.67
2023-03-12T00:11:51.604Z,7.13
2023-03-12T00:14:19.876Z,6.83
2023-03-12T00:16:48.220Z,10.27
2023-03-12T00:19:16.466Z,9.97
2023-03-12T00:21:46.050Z,6.80
2023-03-12T00:24:14.396Z,7.33
2023-03-12T00:26:42.625Z,7.93
2023-03-12T00:29:10.823Z,6.50
2023-03-12T00:31:39.204Z,7.47
2023-03-12T00:34:07.541Z,5.40
2023-03-12T00:36:35.874Z,6.70
2023-03-12T00:39:05.543Z,5.77
2023-03-12T00:41:33.735Z,6.97
2023-03-12T00:44:01.929Z,6.33
2023-03-12T00:46:30.320Z,7.23
2023-03-12T00:48:58.583Z,10.00
2023-03-12T00:51:26.775Z,9.90
2023-03-12T00:53:55.937Z,9.83
2023-03-12T00:56:25.578Z,7.67
2023-03-12T00:58:53.791Z,8.20
2023-03-12T01:01:22.068Z,4.73
2023-03-12T01:03:52.059Z,11.53
2023-03-12T01:06:20.370Z,7.70
2023-03-12T01:08:48.761Z,8.83
2023-03-12T01:11:17.311Z,6.33
2023-03-12T01:13:46.935Z,4.43
2023-03-12T01:16:15.188Z,5.13
2023-03-12T01:18:43.635Z,4.43
2023-03-12T01:21:12.259Z,7.83
2023-03-12T01:23:40.849Z,7.47
2023-03-12T01:26:09.077Z,4.00
2023-03-12T01:28:37.274Z,4.07
2023-03-12T01:31:10.762Z,5.73
2023-03-12T01:33:39.075Z,3.87
2023-03-12T01:36:08.160Z,9.67
2023-03-12T01:38:36.517Z,8.00
2023-03-12T01:41:04.833Z,7.87
2023-03-12T01:43:34.514Z,4.83
2023-03-12T01:46:24.032Z,6.90
2023-03-12T01:48:56.301Z,5.33
2023-03-12T01:51:26.807Z,10.27
2023-03-12T01:53:56.760Z,6.90
2023-03-12T01:56:28.532Z,7.23
2023-03-12T01:58:58.001Z,7.87
2023-03-12T02:01:26.758Z,7.53
2023-03-12T02:03:57.684Z,7.83
2023-03-12T02:06:28.799Z,8.30
2023-03-12T02:08:57.265Z,9.07
2023-03-12T02:11:25.483Z,7.50
2023-03-12T02:13:53.721Z,7.30
2023-03-12T02:16:22.040Z,8.30
2023-03-12T02:18:52.200Z,10.47
2023-03-12T02:21:22.866Z,8.10
2023-03-12T02:23:54.614Z,8.30
2023-03-12T02:26:24.941Z,7.00
2023-03-12T02:28:54.355Z,6.87
2023-03-12T02:31:24.435Z,9.63
2023-03-12T02:33:53.302Z,7.30
2023-03-12T02:36:21.904Z,6.13
2023-03-12T02:38:50.924Z,8.03
2023-03-12T02:41:21.813Z,5.63
2023-03-12T02:43:53.766Z,6.60
2023-03-12T02:46:22.244Z,8.73
2023-03-12T02:48:50.550Z,8.70
2023-03-12T02:51:18.809Z,6.20
2023-03-12T02:53:47.216Z,5.83
2023-03-12T02:56:15.408Z,8.57
2023-03-12T02:58:44.588Z,7.10
2023-03-12T03:01:14.160Z,7.37
2023-03-12T03:03:42.491Z,6.80
2023-03-12T03:06:10.857Z,8.33
2023-03-12T03:08:39.049Z,11.23
2023-03-12T03:11:07.469Z,8.43
2023-03-12T03:13:35.945Z,6.90
2023-03-12T03:16:04.401Z,6.80
2023-03-12T03:18:34.041Z,7.33
2023-03-12T03:21:03.467Z,7.17
2023-03-12T03:23:31.675Z,5.57
2023-03-12T03:26:00.343Z,7.30
2023-03-12T03:28:29.371Z,8.67
2023-03-12T03:31:01.352Z,5.43
2023-03-12T03:33:29.744Z,8.53
2023-03-12T03:35:59.507Z,6.37
2023-03-12T03:38:27.967Z,6.90
2023-03-12T03:40:56.510Z,8.30
2023-03-12T03:43:24.814Z,6.87
2023-03-12T03:45:58.659Z,7.53
2023-03-12T03:48:26.917Z,9.73
2023-03-12T03:50:55.182Z,10.53
2023-03-12T03:53:24.732Z,5.60
2023-03-12T03:55:52.986Z,5.87
2023-03-12T03:58:21.189Z,7.57
2023-03-12T04:00:49.427Z,6.00
2023-03-12T04:03:17.661Z,7.27
2023-03-12T04:05:46.100Z,5.17
2023-03-12T04:08:14.512Z,5.23
2023-03-12T04:10:44.047Z,5.70
2023-03-12T04:13:12.284Z,7.30
2023-03-12T04:15:40.711Z,7.27
2023-03-12T04:18:09.022Z,6.60
2023-03-12T04:20:37.182Z,5.43
2023-03-12T04:23:05.425Z,4.93
2023-03-12T04:25:33.674Z,5.63
2023-03-12T04:28:03.374Z,7.27
2023-03-12T04:30:31.590Z,7.20
2023-03-12T04:32:59.801Z,5.77
2023-03-12T04:35:28.110Z,8.57
2023-03-12T04:37:56.298Z,6.97
2023-03-12T04:40:24.517Z,5.60
2023-03-12T04:42:52.715Z,8.27
2023-03-12T04:45:22.337Z,6.53
2023-03-12T04:47:50.531Z,5.93
2023-03-12T04:50:19.089Z,5.17
2023-03-12T04:52:47.290Z,7.10
2023-03-12T04:55:15.489Z,6.37
2023-03-12T04:57:43.739Z,7.27
2023-03-12T05:00:13.285Z,5.07
2023-03-12T05:02:43.287Z,8.87
2023-03-12T05:05:12.998Z,6.93
2023-03-12T05:07:41.247Z,7.67
2023-03-12T05:10:10.165Z,5.90
2023-03-12T05:12:38.383Z,7.97
2023-03-12T05:15:07.030Z,5.00
2023-03-12T05:17:35.247Z,6.53
2023-03-12T05:20:05.127Z,6.07
2023-03-12T05:22:33.365Z,7.33
2023-03-12T05:25:01.553Z,6.57
2023-03-12T05:27:31.820Z,5.90
2023-03-12T05:30:00.443Z,8.03
2023-03-12T05:32:28.659Z,7.40
2023-03-12T05:34:56.868Z,4.73
2023-03-12T05:37:27.587Z,7.07
2023-03-12T05:39:56.175Z,8.87
2023-03-12T05:42:25.936Z,6.40
2023-03-12T05:44:54.145Z,8.60
2023-03-12T05:47:22.328Z,7.37
2023-03-12T05:49:50.649Z,4.87
2023-03-12T05:52:18.894Z,5.47
2023-03-12T05:54:48.522Z,5.53
2023-03-12T05:57:16.752Z,4.83
2023-03-12T05:59:45.001Z,8.17
2023-03-12T06:02:13.274Z,5.20
2023-03-12T06:04:41.530Z,6.27
2023-03-12T06:07:09.695Z,5.47
2023-03-12T06:09:38.306Z,5.40
2023-03-12T06:12:08.189Z,4.37
2023-03-12T06:14:36.428Z,6.70
2023-03-12T06:17:04.674Z,8.73
2023-03-12T06:19:32.863Z,7.57
2023-03-12T06:22:01.095Z,6.57
2023-03-12T06:24:29.286Z,8.30
2023-03-12T06:26:57.558Z,3.03
2023-03-12T06:29:27.235Z,4.90
2023-03-12T06:31:56.023Z,5.90
2023-03-12T06:34:24.336Z,5.43
2023-03-12T06:36:52.550Z,4.50
2023-03-12T06:39:20.721Z,4.67
2023-03-12T06:41:48.948Z,5.40
2023-03-12T06:44:17.516Z,5.90
2023-03-12T06:46:47.231Z,4.47
2023-03-12T06:49:15.820Z,7.43
2023-03-12T06:51:44.047Z,4.53
2023-03-12T06:54:12.272Z,7.60
2023-03-12T06:56:40.627Z,5.37
2023-03-12T06:59:09.016Z,7.07
2023-03-12T07:01:37.183Z,3.13
2023-03-12T07:04:06.885Z,5.20
2023-03-12T07:06:35.170Z,4.10
2023-03-12T07:09:04.857Z,2.93
2023-03-12T07:11:33.090Z,6.10
2023-03-12T07:14:01.633Z,5.07
2023-03-12T07:16:30.859Z,5.80
2023-03-12T07:18:59.179Z,5.40
2023-03-12T07:21:29.040Z,6.17
2023-03-12T07:23:57.251Z,4.03
2023-03-12T07:26:25.706Z,5.93
2023-03-12T07:28:53.949Z,6.53
2023-03-12T07:31:22.177Z,6.63
2023-03-12T07:33:50.580Z,7.43
2023-03-12T07:36:18.919Z,5.57
2023-03-12T07:38:48.710Z,3.63
2023-03-12T07:41:17.026Z,5.30
2023-03-12T07:43:45.789Z,6.13
2023-03-12T07:46:14.193Z,6.10
2023-03-12T07:48:44.306Z,5.80
2023-03-12T07:51:13.021Z,7.80
2023-03-12T07:53:41.285Z,5.60
2023-03-12T07:56:11.105Z,5.73
2023-03-12T07:58:39.671Z,4.07
2023-03-12T08:01:08.285Z,3.60
2023-03-12T08:03:36.982Z,4.20
2023-03-12T08:06:06.292Z,5.73
2023-03-12T08:08:36.148Z,3.37
2023-03-12T08:11:05.615Z,5.30
2023-03-12T08:13:35.362Z,4.30
2023-03-12T08:16:03.644Z,3.03
2023-03-12T08:18:31.896Z,4.33
2023-03-12T08:21:00.163Z,7.43
2023-03-12T08:23:28.615Z,5.97
2023-03-12T08:25:56.849Z,4.57
2023-03-12T08:28:25.626Z,8.47
2023-03-12T08:30:55.872Z,6.93
2023-03-12T08:33:24.096Z,6.80
2023-03-12T08:35:52.370Z,6.83
2023-03-12T08:38:21.159Z,6.27
2023-03-12T08:40:55.965Z,6.30
2023-03-12T08:43:24.194Z,6.30
2023-03-12T08:45:56.389Z,8.27
2023-03-12T08:48:24.808Z,7.63
2023-03-12T08:50:53.000Z,6.70
2023-03-12T08:53:21.221Z,3.53
2023-03-12T08:55:49.402Z,4.07
2023-03-12T08:58:17.592Z,5.03
2023-03-12T09:00:45.925Z,10.00
2023-03-12T09:03:15.536Z,10.37
2023-03-12T09:05:47.182Z,7.30
2023-03-12T09:08:15.863Z,7.87
2023-03-12T09:10:50.113Z,8.30
2023-03-12T09:13:18.439Z,6.10
2023-03-12T09:15:46.666Z,4.80
2023-03-12T09:18:16.564Z,6.53
2023-03-12T09:20:44.979Z,8.50
2023-03-12T09:23:13.182Z,4.73
2023-03-12T09:25:41.512Z,8.07
2023-03-12T09:28:10.262Z,6.03
2023-03-12T09:30:38.570Z,5.17
2023-03-12T09:33:06.849Z,7.40
2023-03-12T09:35:36.457Z,7.00
2023-03-12T09:38:05.160Z,6.80
2023-03-12T09:40:36.357Z,8.03
2023-03-12T09:43:06.199Z,8.97
2023-03-12T09:45:37.462Z,6.80
2023-03-12T09:48:06.803Z,7.83
2023-03-12T09:50:40.283Z,6.47
2023-03-12T09:53:13.316Z,6.90
2023-03-12T09:55:42.764Z,5.50
2023-03-12T09:58:14.508Z,8.57
2023-03-12T10:00:42.787Z,8.33
2023-03-12T10:03:20.943Z,9.90
2023-03-12T10:05:56.342Z,8.60
2023-03-12T10:08:28.720Z,10.13
2023-03-12T10:11:00.743Z,7.87
2023-03-12T10:13:38.477Z,8.43
2023-03-12T10:16:13.538Z,7.00
2023-03-12T10:18:55.145Z,8.70
2023-03-12T10:21:27.952Z,12.80
2023-03-12T10:24:04.321Z,7.67
2023-03-12T10:26:34.524Z,6.90
2023-03-12T10:29:05.247Z,12.10
2023-03-12T10:31:36.485Z,10.67
2023-03-12T10:34:08.775Z,8.17
2023-03-12T10:36:39.972Z,8.37
2023-03-12T10:39:12.772Z,8.80
2023-03-12T10:41:40.977Z,10.47
2023-03-12T10:44:10.586Z,11.37
2023-03-12T10:46:53.930Z,12.07
2023-03-12T10:49:26.447Z,15.13
2023-03-12T10:52:00.361Z,13.27
2023-03-12T10:54:32.788Z,12.47
2023-03-12T10:57:01.016Z,9.37
2023-03-12T10:59:30.734Z,9.63
2023-03-12T11:01:59.577Z,9.43
2023-03-12T11:04:30.184Z,10.47
2023-03-12T11:07:17.657Z,9.73
2023-03-12T11:09:46.000Z,13.77
2023-03-12T11:12:29.534Z,14.83
2023-03-12T11:14:57.861Z,13.07
2023-03-12T11:17:26.821Z,11.30
2023-03-12T11:19:55.045Z,12.20
2023-03-12T11:22:32.441Z,13.70
2023-03-12T11:25:01.485Z,12.67
2023-03-12T11:27:36.053Z,13.00
2023-03-12T11:30:05.585Z,12.47
2023-03-12T11:32:36.105Z,14.77
2023-03-12T11:35:05.347Z,13.77
2023-03-12T11:37:41.430Z,15.00
2023-03-12T11:40:15.397Z,18.17
2023-03-12T11:42:52.006Z,16.17
2023-03-12T11:45:24.841Z,15.37
2023-03-12T11:47:57.136Z,14.43
2023-03-12T11:50:30.387Z,15.60
2023-03-12T11:53:16.073Z,15.37
2023-03-12T11:55:49.222Z,14.23
2023-03-12T11:58:35.855Z,14.70
2023-03-12T12:01:14.357Z,13.60
2023-03-12T12:03:56.477Z,14.77
2023-03-12T12:06:28.017Z,13.97
2023-03-12T12:09:06.759Z,14.50
2023-03-12T12:11:38.499Z,15.23
2023-03-12T12:14:15.672Z,12.27
2023-03-12T12:16:50.541Z,13.70
2023-03-12T12:19:24.685Z,12.63
2023-03-12T12:21:57.105Z,12.80
2023-03-12T12:24:39.387Z,13.47
2023-03-12T12:27:15.459Z,12.70
2023-03-12T12:29:51.750Z,14.00
2023-03-12T12:32:23.908Z,14.80
2023-03-12T12:34:59.676Z,13.00
2023-03-12T12:37:33.229Z,12.60
2023-03-12T12:40:08.734Z,12.90
2023-03-12T12:42:46.079Z,12.73
2023-03-12T12:45:15.898Z,13.67
2023-03-12T12:47:47.191Z,12.13
2023-03-12T12:50:18.150Z,14.80
2023-03-12T12:52:47.113Z,13.20
2023-03-12T12:55:19.436Z,14.40
2023-03-12T12:57:49.282Z,15.40
2023-03-12T13:00:27.570Z,15.07
2023-03-12T13:02:57.425Z,12.77
2023-03-12T13:05:28.795Z,13.43
2023-03-12T13:07:57.156Z,13.63
2023-03-12T13:10:48.686Z,13.67
2023-03-12T13:13:28.537Z,16.33
2023-03-12T13:16:11.758Z,12.80
2023-03-12T13:18:40.758Z,14.47
2023-03-12T13:21:16.775Z,14.47
2023-03-12T13:23:49.662Z,17.17
2023-03-12T13:26:22.781Z,15.83
2023-03-12T13:29:11.911Z,14.63
2023-03-12T13:31:42.340Z,14.43
2023-03-12T13:34:29.321Z,16.20
2023-03-12T13:37:00.380Z,16.90
2023-03-12T13:39:32.004Z,16.83
2023-03-12T13:42:02.340Z,17.00
2023-03-12T13:44:33.059Z,18.77
2023-03-12T13:47:02.761Z,16.60
2023-03-12T13:49:37.533Z,17.83
2023-03-12T13:52:19.969Z,16.70
2023-03-12T13:54:49.481Z,16.23
2023-03-12T13:57:27.777Z,15.03
2023-03-12T13:59:58.616Z,15.30
2023-03-12T14:02:28.839Z,15.67
2023-03-12T14:05:04.062Z,15.77
2023-03-12T14:07:42.863Z,18.17
2023-03-12T14:10:18.965Z,19.20
2023-03-12T14:12:54.146Z,19.70
2023-03-12T14:15:27.289Z,16.57
2023-03-12T14:17:57.842Z,18.13
2023-03-12T14:20:26.619Z,19.60
2023-03-12T14:22:57.107Z,21.90
2023-03-12T14:25:30.073Z,17.67
2023-03-12T14:27:59.953Z,22.17
2023-03-12T14:30:33.857Z,19.40
2023-03-12T14:33:04.933Z,20.07
2023-03-12T14:35:35.798Z,18.90
2023-03-12T14:38:06.531Z,17.07
2023-03-12T14:40:38.629Z,19.97
2023-03-12T14:43:21.812Z,16.37
2023-03-12T14:45:53.578Z,24.57
2023-03-12T14:48:25.817Z,18.67
2023-03-12T14:50:54.492Z,15.87
2023-03-12T14:53:24.535Z,14.30
2023-03-12T14:56:02.791Z,17.30
2023-03-12T14:58:31.222Z,16.23
2023-03-12T15:01:02.084Z,17.27
2023-03-12T15:03:30.853Z,18.43
2023-03-12T15:05:59.613Z,16.47
2023-03-12T15:08:28.436Z,15.63
2023-03-12T15:10:57.633Z,17.37
2023-03-12T15:13:26.889Z,13.73
2023-03-12T15:15:56.093Z,16.87
2023-03-12T15:18:27.310Z,13.33
2023-03-12T15:20:57.251Z,16.80
2023-03-12T15:23:26.337Z,15.87
2023-03-12T15:26:09.599Z,19.10
2023-03-12T15:28:38.293Z,22.40
2023-03-12T15:31:08.325Z,19.43
2023-03-12T15:33:38.206Z,16.57
2023-03-12T15:36:10.382Z,19.47
2023-03-12T15:38:39.731Z,17.97
2023-03-12T15:41:09.579Z,18.43
2023-03-12T15:43:38.043Z,20.87
2023-03-12T15:46:10.503Z,17.03
2023-03-12T15:48:41.867Z,17.23
2023-03-12T15:51:15.776Z,19.10
2023-03-12T15:53:44.037Z,15.93
2023-03-12T15:56:23.352Z,16.50
2023-03-12T15:59:00.528Z,21.40
2023-03-12T16:01:29.226Z,16.33
2023-03-12T16:03:59.304Z,20.73
2023-03-12T16:06:29.974Z,19.17
2023-03-12T16:08:59.414Z,21.10
2023-03-12T16:11:28.511Z,19.33
2023-03-12T16:14:00.147Z,21.10
2023-03-12T16:16:28.456Z,20.47
2023-03-12T16:18:57.157Z,23.73
2023-03-12T16:21:27.169Z,21.97
2023-03-12T16:23:55.535Z,21.00
2023-03-12T16:26:23.809Z,19.33
2023-03-12T16:28:52.052Z,22.03
2023-03-12T16:31:20.402Z,21.53
2023-03-12T16:33:48.692Z,19.07
2023-03-12T16:36:19.187Z,20.47
2023-03-12T16:38:48.944Z,22.70
2023-03-12T16:41:19.133Z,19.97
2023-03-12T16:43:48.693Z,19.60
2023-03-12T16:46:18.652Z,20.27
2023-03-12T16:48:47.075Z,19.00
2023-03-12T16:51:16.072Z,18.50
2023-03-12T16:53:46.332Z,21.13
2023-03-12T16:56:18.213Z,18.30
2023-03-12T16:58:47.018Z,20.53
2023-03-12T17:01:16.063Z,22.97
2023-03-12T17:03:46.448Z,22.80
2023-03-12T17:06:16.911Z,20.63
2023-03-12T17:08:45.278Z,23.30
2023-03-12T17:11:15.794Z,23.20
2023-03-12T17:13:46.679Z,18.60
2023-03-12T17:16:15.292Z,23.50
2023-03-12T17:18:43.622Z,17.63
2023-03-12T17:21:12.860Z,22.13
2023-03-12T17:23:41.139Z,27.50
2023-03-12T17:26:09.747Z,21.53
2023-03-12T17:28:38.153Z,23.67
2023-03-12T17:31:08.272Z,24.10
2023-03-12T17:33:38.250Z,22.23
2023-03-12T17:38:39.786Z,24.53
2023-03-12T17:41:23.388Z,22.37
2023-03-12T17:43:53.635Z,22.67
2023-03-12T17:46:23.835Z,25.57
2023-03-12T17:48:52.224Z,29.13
2023-03-12T17:51:21.068Z,22.30
2023-03-12T17:53:49.558Z,24.60
2023-03-12T17:56:19.331Z,24.90
2023-03-12T17:58:47.766Z,20.90
2023-03-12T18:01:16.497Z,23.07
2023-03-12T18:03:46.235Z,24.47
2023-03-12T18:06:14.547Z,26.93
2023-03-12T18:08:42.799Z,22.73
2023-03-12T18:11:11.094Z,29.83
2023-03-12T18:13:40.873Z,23.13
2023-03-12T18:16:09.356Z,25.67
2023-03-12T18:18:37.704Z,20.77
2023-03-12T18:21:07.473Z,21.73
2023-03-12T18:23:35.672Z,26.37
2023-03-12T18:26:04.089Z,22.57
2023-03-12T18:28:33.014Z,23.37
2023-03-12T18:31:01.620Z,21.53
2023-03-12T18:33:30.695Z,20.87
2023-03-12T18:35:59.068Z,25.10
2023-03-12T18:38:28.683Z,26.30
2023-03-12T18:41:03.932Z,29.07
2023-03-12T18:43:32.735Z,28.23
2023-03-12T18:46:01.121Z,20.57
2023-03-12T18:48:29.437Z,22.50
2023-03-12T18:50:57.667Z,21.63
2023-03-12T18:53:25.912Z,18.83
2023-03-12T18:55:56.452Z,23.37
2023-03-12T18:58:25.192Z,23.87
2023-03-12T19:00:53.600Z,20.40
2023-03-12T19:03:22.238Z,21.87
2023-03-12T19:05:50.882Z,22.00
2023-03-12T19:08:20.677Z,19.70
2023-03-12T19:10:48.883Z,22.70
2023-03-12T19:13:18.490Z,26.37
2023-03-12T19:15:47.088Z,31.63
2023-03-12T19:18:15.354Z,23.43
2023-03-12T19:20:43.631Z,23.70
2023-03-12T19:23:11.888Z,25.10
2023-03-12T19:25:40.096Z,27.80
2023-03-12T19:28:08.323Z,24.03
2023-03-12T19:30:37.912Z,29.37
2023-03-12T19:33:06.342Z,21.27
2023-03-12T19:35:34.945Z,24.37
2023-03-12T19:38:03.244Z,27.03
2023-03-12T19:40:31.456Z,20.13
2023-03-12T19:42:59.845Z,28.90
2023-03-12T19:45:28.391Z,26.97
2023-03-12T19:47:58.066Z,27.83
2023-03-12T19:50:26.381Z,24.43
2023-03-12T19:52:54.655Z,30.80
2023-03-12T19:55:22.953Z,21.23
2023-03-12T19:57:51.197Z,29.33
2023-03-12T20:00:19.756Z,23.63
2023-03-12T20:02:48.449Z,24.37
2023-03-12T20:05:18.193Z,29.10
2023-03-12T20:07:46.788Z,19.60
2023-03-12T20:10:15.004Z,27.23
2023-03-12T20:12:43.538Z,24.10
2023-03-12T20:15:12.013Z,26.30
2023-03-12T20:17:40.421Z,23.00
2023-03-12T20:20:09.471Z,22.00
2023-03-12T20:22:39.050Z,24.67
2023-03-12T20:25:08.171Z,21.50
2023-03-12T20:27:36.463Z,21.67
2023-03-12T20:30:04.740Z,30.73
2023-03-12T20:32:33.030Z,27.37
2023-03-12T20:35:01.265Z,27.63
2023-03-12T20:37:29.592Z,25.10
2023-03-12T20:40:28.656Z,28.77
2023-03-12T20:43:08.168Z,25.27
2023-03-12T20:45:36.991Z,25.33
2023-03-12T20:48:05.347Z,27.77
2023-03-12T20:50:33.999Z,25.50
2023-03-12T20:53:02.208Z,25.67
2023-03-12T20:55:31.894Z,24.50
2023-03-12T20:58:00.448Z,21.57
2023-03-12T21:00:28.820Z,25.80
2023-03-12T21:02:57.083Z,23.07
2023-03-12T21:05:25.597Z,24.37
2023-03-12T21:07:58.049Z,25.07
2023-03-12T21:10:26.546Z,22.87
2023-03-12T21:12:56.186Z,23.20
2023-03-12T21:15:24.472Z,24.00
2023-03-12T21:17:52.742Z,27.33
2023-03-12T21:20:21.115Z,25.53
2023-03-12T21:22:49.318Z,20.33
2023-03-12T21:25:17.613Z,24.67
2023-03-12T21:27:51.151Z,24.13
2023-03-12T21:30:21.314Z,22.63
2023-03-12T21:32:49.652Z,24.27
2023-03-12T21:35:19.845Z,22.63
2023-03-12T21:37:48.121Z,24.60
2023-03-12T21:40:16.615Z,26.53
2023-03-12T21:42:44.829Z,24.07
2023-03-12T21:45:13.216Z,23.33
2023-03-12T21:47:42.825Z,22.90
2023-03-12T21:50:11.862Z,23.43
2023-03-12T21:52:43.303Z,27.53
2023-03-12T21:55:12.053Z,22.80
2023-03-12T21:57:40.493Z,21.63
2023-03-12T22:00:12.365Z,22.83
2023-03-12T22:02:40.702Z,24.23
2023-03-12T22:05:10.604Z,22.27
2023-03-12T22:07:39.566Z,24.40
2023-03-12T22:10:11.671Z,21.30
2023-03-12T22:12:40.526Z,24.20
2023-03-12T22:15:09.642Z,22.37
2023-03-12T22:17:37.854Z,20.83
2023-03-12T22:20:07.907Z,24.10
2023-03-12T22:22:37.478Z,22.27
2023-03-12T22:25:05.912Z,21.77
2023-03-12T22:27:34.155Z,24.03
2023-03-12T22:30:02.403Z,23.10
2023-03-12T22:32:30.695Z,22.00
2023-03-12T22:34:58.890Z,21.10
2023-03-12T22:37:27.066Z,23.67
2023-03-12T22:40:01.269Z,26.93
2023-03-12T22:42:29.559Z,19.67
2023-03-12T22:44:57.785Z,23.03
2023-03-12T22:47:26.038Z,22.27
2023-03-12T22:49:57.527Z,17.00
2023-03-12T22:52:25.729Z,28.60
2023-03-12T22:54:54.022Z,22.07
2023-03-12T22:57:23.713Z,21.87
2023-03-12T22:59:51.928Z,18.33
2023-03-12T23:02:20.164Z,22.70
2023-03-12T23:04:48.396Z,22.33
2023-03-12T23:07:17.256Z,25.10
2023-03-12T23:09:46.222Z,22.93
2023-03-12T23:12:14.423Z,22.40
2023-03-12T23:14:44.057Z,19.10
2023-03-12T23:17:12.283Z,23.57
2023-03-12T23:19:42.625Z,20.77
2023-03-12T23:22:10.905Z,19.80
2023-03-12T23:24:39.143Z,22.43
2023-03-12T23:27:07.808Z,16.63
2023-03-12T23:29:36.097Z,23.43
2023-03-12T23:32:06.230Z,24.23
2023-03-12T23:34:34.908Z,16.47
2023-03-12T23:37:03.289Z,21.73
2023-03-12T23:39:32.793Z,21.27
2023-03-12T23:42:03.647Z,24.27
2023-03-12T23:44:31.853Z,19.70
2023-03-12T23:47:00.049Z,17.43
2023-03-12T23:49:29.865Z,22.07
2023-03-12T23:51:58.068Z,19.80
2023-03-12T23:54:26.300Z,15.17
2023-03-12T23:56:56.130Z,18.77
2023-03-12T23:59:24.346Z,17.07
